Terminal Aerodrome Forecast
Issued by NWS Wilmington, OH

Current Version | Previous Version | Graphics & Text | Print | Product List | Glossary On
Versions: 1 2 3 4 5 6 7 8 9 10 11 12 13
000
FTUS41 KILN 220500 RRA
TAFILN
TAF
KILN 220547Z 2206/2306 23006KT P6SM SKC
     FM221400 25010G16KT P6SM SCT040
     FM222200 31010KT P6SM SCT050 SCT250
     FM230100 04005KT P6SM SCT200=

USA.gov is the U.S. government's official web portal to all federal, state and local government web resources and services.